sensor_id;sensor_type;location;lat;lon;timestamp;temperature;humidity
9209;DHT22;4639;48.862;9.188;2024-03-02T00:00:23;7.90;99.90
9209;DHT22;4639;48.862;9.188;2024-03-02T00:02:50;7.90;99.90
9209;DHT22;4639;48.862;9.188;2024-03-02T00:05:20;7.90;99.90
9209;DHT22;4639;48.862;9.188;2024-03-02T00:07:56;7.90;99.90
9209;DHT22;4639;48.862;9.188;2024-03-02T00:10:25;7.70;99.90
9209;DHT22;4639;48.862;9.188;2024-03-02T00:12:55;7.70;99.90
9209;DHT22;4639;48.862;9.188;2024-03-02T00:15:47;7.90;99.90
9209;DHT22;4639;48.862;9.188;2024-03-02T00:18:16;7.70;99.90
9209;DHT22;4639;48.862;9.188;2024-03-02T00:20:43;7.90;99.90
9209;DHT22;4639;48.862;9.188;2024-03-02T00:23:15;7.70;99.90
9209;DHT22;4639;48.862;9.188;2024-03-02T00:28:29;7.60;99.90
9209;DHT22;4639;48.862;9.188;2024-03-02T00:33:33;7.60;99.90
9209;DHT22;4639;48.862;9.188;2024-03-02T00:35:59;7.60;99.90
9209;DHT22;4639;48.862;9.188;2024-03-02T00:38:25;7.60;99.90
9209;DHT22;4639;48.862;9.188;2024-03-02T00:40:51;7.60;99.90
9209;DHT22;4639;48.862;9.188;2024-03-02T00:46:21;7.50;99.90
9209;DHT22;4639;48.862;9.188;2024-03-02T00:48:57;7.60;99.90
9209;DHT22;4639;48.862;9.188;2024-03-02T00:51:25;7.50;99.90
9209;DHT22;4639;48.862;9.188;2024-03-02T00:53:55;7.40;99.90
9209;DHT22;4639;48.862;9.188;2024-03-02T00:56:22;7.50;99.90
9209;DHT22;4639;48.862;9.188;2024-03-02T00:58:51;7.50;99.90
9209;DHT22;4639;48.862;9.188;2024-03-02T01:01:17;7.50;99.90
9209;DHT22;4639;48.862;9.188;2024-03-02T01:03:43;7.40;99.90
9209;DHT22;4639;48.862;9.188;2024-03-02T01:06:09;7.40;99.90
9209;DHT22;4639;48.862;9.188;2024-03-02T01:08:35;7.30;99.90
9209;DHT22;4639;48.862;9.188;2024-03-02T01:11:01;7.30;99.90
9209;DHT22;4639;48.862;9.188;2024-03-02T01:13:27;7.30;99.90
9209;DHT22;4639;48.862;9.188;2024-03-02T01:15:53;7.40;99.90
9209;DHT22;4639;48.862;9.188;2024-03-02T01:18:19;7.40;99.90
9209;DHT22;4639;48.862;9.188;2024-03-02T01:20:44;7.40;99.90
9209;DHT22;4639;48.862;9.188;2024-03-02T01:23:11;7.50;99.90
9209;DHT22;4639;48.862;9.188;2024-03-02T01:25:36;7.40;99.90
9209;DHT22;4639;48.862;9.188;2024-03-02T01:28:02;7.30;99.90
9209;DHT22;4639;48.862;9.188;2024-03-02T01:30:28;7.20;99.90
9209;DHT22;4639;48.862;9.188;2024-03-02T01:32:53;7.30;99.90
9209;DHT22;4639;48.862;9.188;2024-03-02T01:35:19;7.20;99.90
9209;DHT22;4639;48.862;9.188;2024-03-02T01:37:44;7.20;99.90
9209;DHT22;4639;48.862;9.188;2024-03-02T01:40:10;7.20;99.90
9209;DHT22;4639;48.862;9.188;2024-03-02T01:42:37;7.20;99.90
9209;DHT22;4639;48.862;9.188;2024-03-02T01:45:08;7.10;99.90
9209;DHT22;4639;48.862;9.188;2024-03-02T01:47:34;7.10;99.90
9209;DHT22;4639;48.862;9.188;2024-03-02T01:50:00;7.10;99.90
9209;DHT22;4639;48.862;9.188;2024-03-02T01:52:27;7.00;99.90
9209;DHT22;4639;48.862;9.188;2024-03-02T01:54:52;7.00;99.90
9209;DHT22;4639;48.862;9.188;2024-03-02T01:57:18;6.90;99.90
9209;DHT22;4639;48.862;9.188;2024-03-02T01:59:45;6.80;99.90
9209;DHT22;4639;48.862;9.188;2024-03-02T02:02:13;6.80;99.90
9209;DHT22;4639;48.862;9.188;2024-03-02T02:04:38;6.70;99.90
9209;DHT22;4639;48.862;9.188;2024-03-02T02:07:04;6.70;99.90
9209;DHT22;4639;48.862;9.188;2024-03-02T02:09:30;6.60;99.90
9209;DHT22;4639;48.862;9.188;2024-03-02T02:11:58;6.70;99.90
9209;DHT22;4639;48.862;9.188;2024-03-02T02:14:24;6.70;99.90
9209;DHT22;4639;48.862;9.188;2024-03-02T02:16:50;6.80;99.90
9209;DHT22;4639;48.862;9.188;2024-03-02T02:19:16;6.70;99.90
9209;DHT22;4639;48.862;9.188;2024-03-02T02:21:42;6.60;99.90
9209;DHT22;4639;48.862;9.188;2024-03-02T02:24:08;6.60;99.90
9209;DHT22;4639;48.862;9.188;2024-03-02T02:26:34;6.60;99.90
9209;DHT22;4639;48.862;9.188;2024-03-02T02:29:00;6.60;99.90
9209;DHT22;4639;48.862;9.188;2024-03-02T02:31:25;6.70;99.90
9209;DHT22;4639;48.862;9.188;2024-03-02T02:33:51;6.70;99.90
9209;DHT22;4639;48.862;9.188;2024-03-02T02:36:16;6.60;99.90
9209;DHT22;4639;48.862;9.188;2024-03-02T02:38:44;6.50;99.90
9209;DHT22;4639;48.862;9.188;2024-03-02T02:41:12;6.40;99.90
9209;DHT22;4639;48.862;9.188;2024-03-02T02:43:38;6.50;99.90
9209;DHT22;4639;48.862;9.188;2024-03-02T02:46:05;6.30;99.90
9209;DHT22;4639;48.862;9.188;2024-03-02T02:48:30;6.30;99.90
9209;DHT22;4639;48.862;9.188;2024-03-02T02:50:56;6.30;99.90
9209;DHT22;4639;48.862;9.188;2024-03-02T02:53:22;6.40;99.90
9209;DHT22;4639;48.862;9.188;2024-03-02T02:55:47;6.40;99.90
9209;DHT22;4639;48.862;9.188;2024-03-02T02:58:25;6.50;99.90
9209;DHT22;4639;48.862;9.188;2024-03-02T03:00:50;6.50;99.90
9209;DHT22;4639;48.862;9.188;2024-03-02T03:03:16;6.50;99.90
9209;DHT22;4639;48.862;9.188;2024-03-02T03:05:41;6.40;99.90
9209;DHT22;4639;48.862;9.188;2024-03-02T03:08:07;6.40;99.90
9209;DHT22;4639;48.862;9.188;2024-03-02T03:10:33;6.40;99.90
9209;DHT22;4639;48.862;9.188;2024-03-02T03:12:58;6.40;99.90
9209;DHT22;4639;48.862;9.188;2024-03-02T03:15:24;6.40;99.90
9209;DHT22;4639;48.862;9.188;2024-03-02T03:17:49;6.30;99.90
9209;DHT22;4639;48.862;9.188;2024-03-02T03:20:16;6.30;99.90
9209;DHT22;4639;48.862;9.188;2024-03-02T03:22:42;6.20;99.90
9209;DHT22;4639;48.862;9.188;2024-03-02T03:25:08;6.10;99.90
9209;DHT22;4639;48.862;9.188;2024-03-02T03:27:33;6.10;99.90
9209;DHT22;4639;48.862;9.188;2024-03-02T03:29:59;6.10;99.90
9209;DHT22;4639;48.862;9.188;2024-03-02T03:32:25;6.00;99.90
9209;DHT22;4639;48.862;9.188;2024-03-02T03:34:50;5.90;99.90
9209;DHT22;4639;48.862;9.188;2024-03-02T03:37:16;5.90;99.90
9209;DHT22;4639;48.862;9.188;2024-03-02T03:39:41;5.90;99.90
9209;DHT22;4639;48.862;9.188;2024-03-02T03:42:07;5.90;99.90
9209;DHT22;4639;48.862;9.188;2024-03-02T03:44:33;5.90;99.90
9209;DHT22;4639;48.862;9.188;2024-03-02T03:46:59;5.90;99.90
9209;DHT22;4639;48.862;9.188;2024-03-02T03:49:26;5.80;99.90
9209;DHT22;4639;48.862;9.188;2024-03-02T03:51:51;5.90;99.90
9209;DHT22;4639;48.862;9.188;2024-03-02T03:54:17;5.80;99.90
9209;DHT22;4639;48.862;9.188;2024-03-02T03:56:42;5.80;99.90
9209;DHT22;4639;48.862;9.188;2024-03-02T03:59:08;5.80;99.90
9209;DHT22;4639;48.862;9.188;2024-03-02T04:01:34;5.70;99.90
9209;DHT22;4639;48.862;9.188;2024-03-02T04:03:59;5.70;99.90
9209;DHT22;4639;48.862;9.188;2024-03-02T04:06:27;5.70;99.90
9209;DHT22;4639;48.862;9.188;2024-03-02T04:08:53;5.60;99.90
9209;DHT22;4639;48.862;9.188;2024-03-02T04:11:18;5.60;99.90
9209;DHT22;4639;48.862;9.188;2024-03-02T04:13:44;5.60;99.90
9209;DHT22;4639;48.862;9.188;2024-03-02T04:16:09;5.60;99.90
9209;DHT22;4639;48.862;9.188;2024-03-02T04:18:35;5.60;99.90
9209;DHT22;4639;48.862;9.188;2024-03-02T04:21:00;5.60;99.90
9209;DHT22;4639;48.862;9.188;2024-03-02T04:23:26;5.60;99.90
9209;DHT22;4639;48.862;9.188;2024-03-02T04:25:52;5.60;99.90
9209;DHT22;4639;48.862;9.188;2024-03-02T04:28:17;5.60;99.90
9209;DHT22;4639;48.862;9.188;2024-03-02T04:30:43;5.60;99.90
9209;DHT22;4639;48.862;9.188;2024-03-02T04:33:08;5.70;99.90
9209;DHT22;4639;48.862;9.188;2024-03-02T04:35:36;5.60;99.90
9209;DHT22;4639;48.862;9.188;2024-03-02T04:38:01;5.60;99.90
9209;DHT22;4639;48.862;9.188;2024-03-02T04:40:27;5.70;99.90
9209;DHT22;4639;48.862;9.188;2024-03-02T04:42:52;5.60;99.90
9209;DHT22;4639;48.862;9.188;2024-03-02T04:45:18;5.60;99.90
9209;DHT22;4639;48.862;9.188;2024-03-02T04:47:44;5.60;99.90
9209;DHT22;4639;48.862;9.188;2024-03-02T04:50:09;5.60;99.90
9209;DHT22;4639;48.862;9.188;2024-03-02T04:52:35;5.50;99.90
9209;DHT22;4639;48.862;9.188;2024-03-02T04:55:01;5.50;99.90
9209;DHT22;4639;48.862;9.188;2024-03-02T04:58:00;5.50;99.90
9209;DHT22;4639;48.862;9.188;2024-03-02T05:00:26;5.50;99.90
9209;DHT22;4639;48.862;9.188;2024-03-02T05:02:51;5.50;99.90
9209;DHT22;4639;48.862;9.188;2024-03-02T05:05:17;5.40;99.90
9209;DHT22;4639;48.862;9.188;2024-03-02T05:07:42;5.50;99.90
9209;DHT22;4639;48.862;9.188;2024-03-02T05:10:09;5.50;99.90
9209;DHT22;4639;48.862;9.188;2024-03-02T05:12:35;5.80;99.90
9209;DHT22;4639;48.862;9.188;2024-03-02T05:15:10;5.60;99.90
9209;DHT22;4639;48.862;9.188;2024-03-02T05:17:37;5.50;99.90
9209;DHT22;4639;48.862;9.188;2024-03-02T05:20:04;5.40;99.90
9209;DHT22;4639;48.862;9.188;2024-03-02T05:22:29;5.40;99.90
9209;DHT22;4639;48.862;9.188;2024-03-02T05:24:55;5.40;99.90
9209;DHT22;4639;48.862;9.188;2024-03-02T05:27:20;5.40;99.90
9209;DHT22;4639;48.862;9.188;2024-03-02T05:29:46;5.40;99.90
9209;DHT22;4639;48.862;9.188;2024-03-02T05:32:12;5.40;99.90
9209;DHT22;4639;48.862;9.188;2024-03-02T05:34:38;5.40;99.90
9209;DHT22;4639;48.862;9.188;2024-03-02T05:37:03;5.40;99.90
9209;DHT22;4639;48.862;9.188;2024-03-02T05:39:29;5.50;99.90
9209;DHT22;4639;48.862;9.188;2024-03-02T05:41:54;5.50;99.90
9209;DHT22;4639;48.862;9.188;2024-03-02T05:44:20;5.40;99.90
9209;DHT22;4639;48.862;9.188;2024-03-02T05:46:46;5.40;99.90
9209;DHT22;4639;48.862;9.188;2024-03-02T05:49:11;5.40;99.90
9209;DHT22;4639;48.862;9.188;2024-03-02T05:51:37;5.30;99.90
9209;DHT22;4639;48.862;9.188;2024-03-02T05:54:03;5.30;99.90
9209;DHT22;4639;48.862;9.188;2024-03-02T05:56:28;5.20;99.90
9209;DHT22;4639;48.862;9.188;2024-03-02T05:58:54;5.20;99.90
9209;DHT22;4639;48.862;9.188;2024-03-02T06:01:45;5.20;99.90
9209;DHT22;4639;48.862;9.188;2024-03-02T06:04:17;5.20;99.90
9209;DHT22;4639;48.862;9.188;2024-03-02T06:06:43;5.20;99.90
9209;DHT22;4639;48.862;9.188;2024-03-02T06:09:09;5.20;99.90
9209;DHT22;4639;48.862;9.188;2024-03-02T06:11:38;5.20;99.90
9209;DHT22;4639;48.862;9.188;2024-03-02T06:14:08;5.20;99.90
9209;DHT22;4639;48.862;9.188;2024-03-02T06:16:34;5.10;99.90
9209;DHT22;4639;48.862;9.188;2024-03-02T06:19:00;5.20;99.90
9209;DHT22;4639;48.862;9.188;2024-03-02T06:21:26;5.20;99.90
9209;DHT22;4639;48.862;9.188;2024-03-02T06:23:52;5.20;99.90
9209;DHT22;4639;48.862;9.188;2024-03-02T06:26:18;5.30;99.90
9209;DHT22;4639;48.862;9.188;2024-03-02T06:28:44;5.30;99.90
9209;DHT22;4639;48.862;9.188;2024-03-02T06:31:10;5.20;99.90
9209;DHT22;4639;48.862;9.188;2024-03-02T06:33:35;5.20;99.90
9209;DHT22;4639;48.862;9.188;2024-03-02T06:36:01;5.20;99.90
9209;DHT22;4639;48.862;9.188;2024-03-02T06:38:27;5.20;99.90
9209;DHT22;4639;48.862;9.188;2024-03-02T06:40:53;5.20;99.90
9209;DHT22;4639;48.862;9.188;2024-03-02T06:43:18;5.20;99.90
9209;DHT22;4639;48.862;9.188;2024-03-02T06:45:49;5.20;99.90
9209;DHT22;4639;48.862;9.188;2024-03-02T06:48:14;5.30;99.90
9209;DHT22;4639;48.862;9.188;2024-03-02T06:50:44;5.30;99.90
9209;DHT22;4639;48.862;9.188;2024-03-02T06:53:09;5.20;99.90
9209;DHT22;4639;48.862;9.188;2024-03-02T06:55:35;5.20;99.90
9209;DHT22;4639;48.862;9.188;2024-03-02T06:58:00;5.20;99.90
9209;DHT22;4639;48.862;9.188;2024-03-02T07:00:26;5.30;99.90
9209;DHT22;4639;48.862;9.188;2024-03-02T07:02:51;5.30;99.90
9209;DHT22;4639;48.862;9.188;2024-03-02T07:05:17;5.30;99.90
9209;DHT22;4639;48.862;9.188;2024-03-02T07:07:44;5.40;99.90
9209;DHT22;4639;48.862;9.188;2024-03-02T07:10:09;5.40;99.90
9209;DHT22;4639;48.862;9.188;2024-03-02T07:12:35;5.50;99.90
9209;DHT22;4639;48.862;9.188;2024-03-02T07:15:02;5.50;99.90
9209;DHT22;4639;48.862;9.188;2024-03-02T07:17:27;5.50;99.90
9209;DHT22;4639;48.862;9.188;2024-03-02T07:19:53;5.60;99.90
9209;DHT22;4639;48.862;9.188;2024-03-02T07:22:19;5.70;99.90
9209;DHT22;4639;48.862;9.188;2024-03-02T07:24:45;6.00;99.90
9209;DHT22;4639;48.862;9.188;2024-03-02T07:27:13;6.20;99.90
9209;DHT22;4639;48.862;9.188;2024-03-02T07:29:40;6.30;99.90
9209;DHT22;4639;48.862;9.188;2024-03-02T07:32:06;6.40;99.90
9209;DHT22;4639;48.862;9.188;2024-03-02T07:34:32;6.60;99.90
9209;DHT22;4639;48.862;9.188;2024-03-02T07:36:57;6.80;99.90
9209;DHT22;4639;48.862;9.188;2024-03-02T07:39:24;6.90;99.90
9209;DHT22;4639;48.862;9.188;2024-03-02T07:41:49;7.00;99.90
9209;DHT22;4639;48.862;9.188;2024-03-02T07:44:15;7.00;99.90
9209;DHT22;4639;48.862;9.188;2024-03-02T07:46:42;6.90;99.90
9209;DHT22;4639;48.862;9.188;2024-03-02T07:49:08;6.90;99.90
9209;DHT22;4639;48.862;9.188;2024-03-02T07:51:34;6.80;99.90
9209;DHT22;4639;48.862;9.188;2024-03-02T07:53:59;6.80;99.90
9209;DHT22;4639;48.862;9.188;2024-03-02T07:56:25;6.80;99.90
9209;DHT22;4639;48.862;9.188;2024-03-02T07:58:51;6.80;99.90
9209;DHT22;4639;48.862;9.188;2024-03-02T08:01:17;6.80;99.90
9209;DHT22;4639;48.862;9.188;2024-03-02T08:03:43;6.80;99.90
9209;DHT22;4639;48.862;9.188;2024-03-02T08:06:14;6.80;99.90
9209;DHT22;4639;48.862;9.188;2024-03-02T08:08:40;6.90;99.90
9209;DHT22;4639;48.862;9.188;2024-03-02T08:11:06;6.90;99.90
9209;DHT22;4639;48.862;9.188;2024-03-02T08:13:31;7.00;99.90
9209;DHT22;4639;48.862;9.188;2024-03-02T08:15:57;7.00;99.90
9209;DHT22;4639;48.862;9.188;2024-03-02T08:18:23;7.00;99.90
9209;DHT22;4639;48.862;9.188;2024-03-02T08:20:49;7.10;99.90
9209;DHT22;4639;48.862;9.188;2024-03-02T08:23:14;7.20;99.90
9209;DHT22;4639;48.862;9.188;2024-03-02T08:25:40;7.30;99.90
9209;DHT22;4639;48.862;9.188;2024-03-02T08:28:06;7.30;99.90
9209;DHT22;4639;48.862;9.188;2024-03-02T08:30:34;7.50;99.90
9209;DHT22;4639;48.862;9.188;2024-03-02T08:33:00;7.70;99.90
9209;DHT22;4639;48.862;9.188;2024-03-02T08:35:26;7.90;99.90
9209;DHT22;4639;48.862;9.188;2024-03-02T08:37:51;8.10;99.90
9209;DHT22;4639;48.862;9.188;2024-03-02T08:40:17;8.40;99.90
9209;DHT22;4639;48.862;9.188;2024-03-02T08:42:42;8.50;99.90
9209;DHT22;4639;48.862;9.188;2024-03-02T08:45:08;8.70;99.90
9209;DHT22;4639;48.862;9.188;2024-03-02T08:47:34;8.80;99.90
9209;DHT22;4639;48.862;9.188;2024-03-02T08:50:00;8.90;99.90
9209;DHT22;4639;48.862;9.188;2024-03-02T08:52:26;9.30;99.90
9209;DHT22;4639;48.862;9.188;2024-03-02T08:54:52;9.70;99.90
9209;DHT22;4639;48.862;9.188;2024-03-02T08:57:18;10.10;99.90
9209;DHT22;4639;48.862;9.188;2024-03-02T08:59:44;10.50;99.90
9209;DHT22;4639;48.862;9.188;2024-03-02T09:02:09;10.60;99.90
9209;DHT22;4639;48.862;9.188;2024-03-02T09:04:35;10.80;99.90
9209;DHT22;4639;48.862;9.188;2024-03-02T09:07:01;11.00;99.90
9209;DHT22;4639;48.862;9.188;2024-03-02T09:09:26;10.90;99.90
9209;DHT22;4639;48.862;9.188;2024-03-02T09:11:52;11.00;99.90
9209;DHT22;4639;48.862;9.188;2024-03-02T09:14:20;11.00;99.90
9209;DHT22;4639;48.862;9.188;2024-03-02T09:16:46;11.20;99.90
9209;DHT22;4639;48.862;9.188;2024-03-02T09:19:11;11.30;99.90
9209;DHT22;4639;48.862;9.188;2024-03-02T09:21:37;11.30;99.90
9209;DHT22;4639;48.862;9.188;2024-03-02T09:24:03;11.60;99.90
9209;DHT22;4639;48.862;9.188;2024-03-02T09:26:29;11.80;99.90
9209;DHT22;4639;48.862;9.188;2024-03-02T09:28:54;12.20;99.90
9209;DHT22;4639;48.862;9.188;2024-03-02T09:31:20;12.50;99.90
9209;DHT22;4639;48.862;9.188;2024-03-02T09:33:45;12.60;99.90
9209;DHT22;4639;48.862;9.188;2024-03-02T09:36:18;12.70;99.90
9209;DHT22;4639;48.862;9.188;2024-03-02T09:38:44;12.90;99.90
9209;DHT22;4639;48.862;9.188;2024-03-02T09:41:10;12.90;99.90
9209;DHT22;4639;48.862;9.188;2024-03-02T09:43:36;13.20;99.90
9209;DHT22;4639;48.862;9.188;2024-03-02T09:46:01;13.70;99.90
9209;DHT22;4639;48.862;9.188;2024-03-02T09:48:27;14.00;99.90
9209;DHT22;4639;48.862;9.188;2024-03-02T09:50:52;14.30;99.90
9209;DHT22;4639;48.862;9.188;2024-03-02T09:53:18;14.60;99.90
9209;DHT22;4639;48.862;9.188;2024-03-02T09:55:47;14.70;99.90
9209;DHT22;4639;48.862;9.188;2024-03-02T09:58:12;14.60;99.90
9209;DHT22;4639;48.862;9.188;2024-03-02T10:00:38;14.40;99.90
9209;DHT22;4639;48.862;9.188;2024-03-02T10:03:04;14.40;99.90
9209;DHT22;4639;48.862;9.188;2024-03-02T10:05:30;14.80;99.90
9209;DHT22;4639;48.862;9.188;2024-03-02T10:08:00;15.30;99.90
9209;DHT22;4639;48.862;9.188;2024-03-02T10:10:37;15.50;99.90
9209;DHT22;4639;48.862;9.188;2024-03-02T10:13:12;15.60;99.90
9209;DHT22;4639;48.862;9.188;2024-03-02T10:15:40;16.10;99.90
9209;DHT22;4639;48.862;9.188;2024-03-02T10:18:11;16.10;99.90
9209;DHT22;4639;48.862;9.188;2024-03-02T10:20:38;16.10;99.90
9209;DHT22;4639;48.862;9.188;2024-03-02T10:23:15;16.30;99.90
9209;DHT22;4639;48.862;9.188;2024-03-02T10:25:42;16.60;99.90
9209;DHT22;4639;48.862;9.188;2024-03-02T10:28:07;17.00;99.90
9209;DHT22;4639;48.862;9.188;2024-03-02T10:30:34;17.10;99.90
9209;DHT22;4639;48.862;9.188;2024-03-02T10:33:01;17.20;99.90
9209;DHT22;4639;48.862;9.188;2024-03-02T10:35:27;17.10;99.90
9209;DHT22;4639;48.862;9.188;2024-03-02T10:37:53;16.90;99.90
9209;DHT22;4639;48.862;9.188;2024-03-02T10:40:22;17.10;99.90
9209;DHT22;4639;48.862;9.188;2024-03-02T10:42:50;16.80;99.90
9209;DHT22;4639;48.862;9.188;2024-03-02T10:45:16;16.80;99.90
9209;DHT22;4639;48.862;9.188;2024-03-02T10:47:46;16.60;99.90
9209;DHT22;4639;48.862;9.188;2024-03-02T10:50:12;16.50;99.90
9209;DHT22;4639;48.862;9.188;2024-03-02T10:52:38;16.60;99.90
9209;DHT22;4639;48.862;9.188;2024-03-02T10:55:09;16.40;99.90
9209;DHT22;4639;48.862;9.188;2024-03-02T10:57:54;16.40;99.90
9209;DHT22;4639;48.862;9.188;2024-03-02T11:00:24;16.50;99.90
9209;DHT22;4639;48.862;9.188;2024-03-02T11:02:56;16.60;99.90
9209;DHT22;4639;48.862;9.188;2024-03-02T11:05:31;16.90;99.90
9209;DHT22;4639;48.862;9.188;2024-03-02T11:08:02;16.90;99.90
9209;DHT22;4639;48.862;9.188;2024-03-02T11:10:36;16.70;99.90
9209;DHT22;4639;48.862;9.188;2024-03-02T11:13:05;16.60;99.90
9209;DHT22;4639;48.862;9.188;2024-03-02T11:15:34;16.80;99.90
9209;DHT22;4639;48.862;9.188;2024-03-02T11:18:04;16.90;99.90
9209;DHT22;4639;48.862;9.188;2024-03-02T11:20:31;16.90;99.90
9209;DHT22;4639;48.862;9.188;2024-03-02T11:22:57;16.80;99.90
9209;DHT22;4639;48.862;9.188;2024-03-02T11:25:27;16.80;99.90
9209;DHT22;4639;48.862;9.188;2024-03-02T11:33:06;16.70;99.90
9209;DHT22;4639;48.862;9.188;2024-03-02T11:35:36;16.80;99.90
9209;DHT22;4639;48.862;9.188;2024-03-02T11:38:07;16.80;99.90
9209;DHT22;4639;48.862;9.188;2024-03-02T11:40:36;17.00;99.90
9209;DHT22;4639;48.862;9.188;2024-03-02T11:43:02;17.20;99.90
9209;DHT22;4639;48.862;9.188;2024-03-02T11:45:28;17.00;99.90
9209;DHT22;4639;48.862;9.188;2024-03-02T11:47:58;17.00;99.90
9209;DHT22;4639;48.862;9.188;2024-03-02T11:50:34;17.00;99.90
9209;DHT22;4639;48.862;9.188;2024-03-02T11:53:09;17.20;99.90
9209;DHT22;4639;48.862;9.188;2024-03-02T11:55:40;17.40;99.90
9209;DHT22;4639;48.862;9.188;2024-03-02T11:58:18;17.60;99.90
9209;DHT22;4639;48.862;9.188;2024-03-02T12:00:46;17.80;99.90
9209;DHT22;4639;48.862;9.188;2024-03-02T12:03:15;18.00;99.90
9209;DHT22;4639;48.862;9.188;2024-03-02T12:05:42;18.30;99.90
9209;DHT22;4639;48.862;9.188;2024-03-02T12:08:08;18.30;99.90
9209;DHT22;4639;48.862;9.188;2024-03-02T12:10:40;18.30;99.90
9209;DHT22;4639;48.862;9.188;2024-03-02T12:13:12;18.10;99.90
9209;DHT22;4639;48.862;9.188;2024-03-02T12:15:40;18.20;99.90
9209;DHT22;4639;48.862;9.188;2024-03-02T12:18:12;18.40;99.90
9209;DHT22;4639;48.862;9.188;2024-03-02T12:20:39;18.70;99.90
9209;DHT22;4639;48.862;9.188;2024-03-02T12:23:07;18.80;99.90
9209;DHT22;4639;48.862;9.188;2024-03-02T12:25:33;19.00;99.90
9209;DHT22;4639;48.862;9.188;2024-03-02T12:28:00;19.30;99.90
9209;DHT22;4639;48.862;9.188;2024-03-02T12:30:30;19.10;99.90
9209;DHT22;4639;48.862;9.188;2024-03-02T12:32:57;19.00;99.90
9209;DHT22;4639;48.862;9.188;2024-03-02T12:35:24;18.90;99.90
9209;DHT22;4639;48.862;9.188;2024-03-02T12:37:53;18.70;99.90
9209;DHT22;4639;48.862;9.188;2024-03-02T12:40:19;18.80;99.90
9209;DHT22;4639;48.862;9.188;2024-03-02T12:42:46;18.90;99.90
9209;DHT22;4639;48.862;9.188;2024-03-02T12:45:12;19.20;99.90
9209;DHT22;4639;48.862;9.188;2024-03-02T12:47:40;19.40;99.90
9209;DHT22;4639;48.862;9.188;2024-03-02T12:50:06;19.40;99.90
9209;DHT22;4639;48.862;9.188;2024-03-02T12:52:33;19.00;99.90
9209;DHT22;4639;48.862;9.188;2024-03-02T12:55:04;18.80;99.90
9209;DHT22;4639;48.862;9.188;2024-03-02T12:57:31;18.80;99.90
9209;DHT22;4639;48.862;9.188;2024-03-02T13:00:06;19.20;99.90
9209;DHT22;4639;48.862;9.188;2024-03-02T13:02:35;18.90;99.90
9209;DHT22;4639;48.862;9.188;2024-03-02T13:05:01;18.90;99.90
9209;DHT22;4639;48.862;9.188;2024-03-02T13:07:28;18.70;99.90
9209;DHT22;4639;48.862;9.188;2024-03-02T13:09:55;18.70;99.90
9209;DHT22;4639;48.862;9.188;2024-03-02T13:12:22;19.00;99.90
9209;DHT22;4639;48.862;9.188;2024-03-02T13:14:54;19.10;99.90
9209;DHT22;4639;48.862;9.188;2024-03-02T13:17:20;19.20;99.90
9209;DHT22;4639;48.862;9.188;2024-03-02T13:19:56;19.40;99.90
9209;DHT22;4639;48.862;9.188;2024-03-02T13:22:21;19.50;99.90
9209;DHT22;4639;48.862;9.188;2024-03-02T13:24:48;19.60;99.90
9209;DHT22;4639;48.862;9.188;2024-03-02T13:27:14;19.50;99.90
9209;DHT22;4639;48.862;9.188;2024-03-02T13:29:41;19.60;99.90
9209;DHT22;4639;48.862;9.188;2024-03-02T13:32:07;19.70;99.90
9209;DHT22;4639;48.862;9.188;2024-03-02T13:34:33;19.30;99.90
9209;DHT22;4639;48.862;9.188;2024-03-02T13:36:59;19.10;99.90
9209;DHT22;4639;48.862;9.188;2024-03-02T13:39:26;19.10;99.90
9209;DHT22;4639;48.862;9.188;2024-03-02T13:41:52;19.00;99.90
9209;DHT22;4639;48.862;9.188;2024-03-02T13:44:22;18.80;99.90
9209;DHT22;4639;48.862;9.188;2024-03-02T13:46:48;18.90;99.90
9209;DHT22;4639;48.862;9.188;2024-03-02T13:49:14;19.10;99.90
9209;DHT22;4639;48.862;9.188;2024-03-02T13:51:40;19.30;99.90
9209;DHT22;4639;48.862;9.188;2024-03-02T13:54:05;19.10;99.90
9209;DHT22;4639;48.862;9.188;2024-03-02T13:56:31;19.00;99.90
9209;DHT22;4639;48.862;9.188;2024-03-02T13:58:58;19.00;99.90
9209;DHT22;4639;48.862;9.188;2024-03-02T14:01:24;19.20;99.90
9209;DHT22;4639;48.862;9.188;2024-03-02T14:03:50;19.30;99.90
9209;DHT22;4639;48.862;9.188;2024-03-02T14:06:16;19.40;99.90
9209;DHT22;4639;48.862;9.188;2024-03-02T14:08:41;19.30;99.90
9209;DHT22;4639;48.862;9.188;2024-03-02T14:11:10;19.50;99.90
9209;DHT22;4639;48.862;9.188;2024-03-02T14:13:40;19.30;99.90
9209;DHT22;4639;48.862;9.188;2024-03-02T14:16:06;19.10;99.90
9209;DHT22;4639;48.862;9.188;2024-03-02T14:18:32;19.00;99.90
9209;DHT22;4639;48.862;9.188;2024-03-02T14:20:58;18.90;99.90
9209;DHT22;4639;48.862;9.188;2024-03-02T14:23:23;18.90;99.90
9209;DHT22;4639;48.862;9.188;2024-03-02T14:25:51;19.10;99.90
9209;DHT22;4639;48.862;9.188;2024-03-02T14:28:16;19.20;99.90
9209;DHT22;4639;48.862;9.188;2024-03-02T14:30:42;19.40;99.90
9209;DHT22;4639;48.862;9.188;2024-03-02T14:33:07;19.30;99.90
9209;DHT22;4639;48.862;9.188;2024-03-02T14:35:33;19.30;99.90
9209;DHT22;4639;48.862;9.188;2024-03-02T14:37:59;19.50;99.90
9209;DHT22;4639;48.862;9.188;2024-03-02T14:40:28;19.30;99.90
9209;DHT22;4639;48.862;9.188;2024-03-02T14:42:55;19.30;99.90
9209;DHT22;4639;48.862;9.188;2024-03-02T14:45:20;19.60;99.90
9209;DHT22;4639;48.862;9.188;2024-03-02T14:47:46;19.90;99.90
9209;DHT22;4639;48.862;9.188;2024-03-02T14:50:12;20.10;99.90
9209;DHT22;4639;48.862;9.188;2024-03-02T14:52:38;20.40;99.90
9209;DHT22;4639;48.862;9.188;2024-03-02T14:55:03;20.60;99.90
9209;DHT22;4639;48.862;9.188;2024-03-02T14:57:29;20.70;99.90
9209;DHT22;4639;48.862;9.188;2024-03-02T14:59:55;20.80;99.90
9209;DHT22;4639;48.862;9.188;2024-03-02T15:02:21;20.80;99.90
9209;DHT22;4639;48.862;9.188;2024-03-02T15:04:47;20.70;99.90
9209;DHT22;4639;48.862;9.188;2024-03-02T15:07:13;21.00;99.90
9209;DHT22;4639;48.862;9.188;2024-03-02T15:09:39;20.60;99.90
9209;DHT22;4639;48.862;9.188;2024-03-02T15:12:05;20.70;99.90
9209;DHT22;4639;48.862;9.188;2024-03-02T15:14:32;20.70;99.80
9209;DHT22;4639;48.862;9.188;2024-03-02T15:16:58;20.60;99.90
9209;DHT22;4639;48.862;9.188;2024-03-02T15:19:23;20.30;99.60
9209;DHT22;4639;48.862;9.188;2024-03-02T15:21:49;19.80;99.90
9209;DHT22;4639;48.862;9.188;2024-03-02T15:24:14;19.40;99.90
9209;DHT22;4639;48.862;9.188;2024-03-02T15:26:40;19.10;99.90
9209;DHT22;4639;48.862;9.188;2024-03-02T15:29:06;19.00;99.90
9209;DHT22;4639;48.862;9.188;2024-03-02T15:31:31;19.00;99.90
9209;DHT22;4639;48.862;9.188;2024-03-02T15:33:57;18.80;99.90
9209;DHT22;4639;48.862;9.188;2024-03-02T15:36:23;18.50;99.90
9209;DHT22;4639;48.862;9.188;2024-03-02T15:38:49;18.20;99.90
9209;DHT22;4639;48.862;9.188;2024-03-02T15:41:15;18.10;99.90
9209;DHT22;4639;48.862;9.188;2024-03-02T15:43:40;17.80;99.90
9209;DHT22;4639;48.862;9.188;2024-03-02T15:46:08;17.60;99.90
9209;DHT22;4639;48.862;9.188;2024-03-02T15:48:34;17.40;99.90
9209;DHT22;4639;48.862;9.188;2024-03-02T15:51:00;17.20;99.90
9209;DHT22;4639;48.862;9.188;2024-03-02T15:53:25;17.00;99.90
9209;DHT22;4639;48.862;9.188;2024-03-02T15:55:51;16.90;99.90
9209;DHT22;4639;48.862;9.188;2024-03-02T15:58:17;16.70;99.90
9209;DHT22;4639;48.862;9.188;2024-03-02T16:00:42;16.60;99.90
9209;DHT22;4639;48.862;9.188;2024-03-02T16:03:08;16.40;99.90
9209;DHT22;4639;48.862;9.188;2024-03-02T16:05:34;16.30;99.90
9209;DHT22;4639;48.862;9.188;2024-03-02T16:07:59;16.20;99.90
9209;DHT22;4639;48.862;9.188;2024-03-02T16:10:25;16.40;99.90
9209;DHT22;4639;48.862;9.188;2024-03-02T16:12:50;16.10;99.90
9209;DHT22;4639;48.862;9.188;2024-03-02T16:15:17;16.10;99.90
9209;DHT22;4639;48.862;9.188;2024-03-02T16:17:43;16.00;99.90
9209;DHT22;4639;48.862;9.188;2024-03-02T16:20:08;16.10;99.90